首页
METAR-TAF:

METAR-TAF

机场 :

普拉, 克罗地亚

纬度: 44-54N, 经度: 013-55E, 海拔: 63米

当前天气观测

该预报发布于43分钟前的18:30 UTC
风速20节,风向东转东北
温度 8°C
湿度 53%
气压 1015 hPa
能见度10公里或以上
少量云层高于5500英尺

METAR: LDPL 301830Z 07020KT 9999 FEW055 08/M01 Q1015 TEMPO 07025G35KT

时间: 21:13 (19:13 UTC)

预报

该预报发布于1小时和48分钟前的17:25 UTC
预报有效从30日的 18点(UTC)到 31日的 18点(UTC)
风速20节,风向东转东北
能见度10公里或以上
1500米以下无云,无积雨云
短暂存在
从 30日的 18点(UTC)到 31日的 09点(UTC)
风速25节,风向东转东北,有时为35节阵风
成为
从 31日的 11点(UTC)到 31日的 13点(UTC)
风速10节,风向东转东北

TAF: LDPL 301725Z 3018/3118 07020KT CAVOK TX10/3112Z TN03/3105Z TEMPO 3018/3109 07025G35KT BECMG 3111/3113 07010KT

超过4000个机场的气象观测和天气预报(METAR&TAF报告)。

可查询的气象台以黄色和红色小点在地图上表示。

将鼠标移到小点上方,可查看气象台名称。

然后点击查看天气观测和预报。

如需切换地图:点击带黑十字的绿色按钮放大地图;点击带横线的绿色按钮缩小地图;或者点击绿色箭头查看邻近地区的地图。


METAR-TAF: